Time;durP1;ratioP1;P1;durP2;ratioP2;P2;SDS_P1;SDS_P2;PMS_P1;PMS_P2;Temp;Humidity;BMP_temperature;BMP_pressure;BME280_temperature;BME280_humidity;BME280_pressure;Samples;Min_cycle;Max_cycle;Signal;HPM_P1;HPM_P2
2022/11/03 00:00:58;;;;;;;;;;;;;;;8.20;83.31;100400.00;5096444;28;19932;-71
2022/11/03 00:03:27;;;;;;;;;;;;;;;8.19;83.78;100395.72;5096678;28;19924;-71
2022/11/03 00:09:25;;;;;;;;;;;;;;;8.16;83.30;100398.22;5095416;28;20019;-71
2022/11/03 00:12:43;;;;;;;;;;;;;;;8.18;83.72;100402.50;5095277;28;20370;-70
2022/11/03 00:16:01;;;;;;;;;;;;;;;8.07;83.61;100399.75;5096190;28;20382;-70
2022/11/03 00:19:24;;;;;;;;;;;;;;;8.09;83.75;100398.09;4825200;28;20370;-70
2022/11/03 00:21:57;;;;;;;;;;;;;;;8.13;83.95;100408.31;5096080;28;19970;-71
2022/11/03 00:24:25;;;;;;;;;;;;;;;8.15;84.45;100396.50;5095991;28;20015;-71
2022/11/03 00:26:53;;;;;;;;;;;;;;;8.09;84.48;100405.72;5096309;28;19928;-70
2022/11/03 00:29:23;;;;;;;;;;;;;;;8.13;84.24;100403.25;5094743;28;19923;-70
2022/11/03 00:31:53;;;;;;;;;;;;;;;8.11;84.27;100406.59;5096247;28;20293;-70
2022/11/03 00:34:22;;;;;;;;;;;;;;;8.13;84.36;100403.25;5096174;28;19931;-70
2022/11/03 00:36:50;;;;;;;;;;;;;;;8.11;84.42;100406.59;5095850;28;19928;-70
2022/11/03 00:39:18;;;;;;;;;;;;;;;8.02;83.96;100408.94;5095771;28;19970;-71
2022/11/03 00:41:47;;;;;;;;;;;;;;;7.91;84.03;100402.78;5095673;28;19931;-70
2022/11/03 00:44:15;;;;;;;;;;;;;;;7.82;84.02;100405.13;5094621;28;19951;-70
2022/11/03 00:46:43;;;;;;;;;;;;;;;7.83;84.84;100408.53;5095584;28;19925;-70
2022/11/03 00:49:13;;;;;;;;;;;;;;;7.89;84.37;100412.03;5095915;28;19924;-71
2022/11/03 00:51:42;;;;;;;;;;;;;;;7.95;84.82;100414.72;5095881;28;19974;-71
2022/11/03 00:54:10;;;;;;;;;;;;;;;7.88;84.61;100417.97;5095708;28;19930;-71
2022/11/03 00:56:39;;;;;;;;;;;;;;;7.80;84.23;100414.41;5096307;28;20023;-71
2022/11/03 00:59:09;;;;;;;;;;;;;;;7.77;84.38;100414.34;5094386;28;19927;-71
2022/11/03 01:01:39;;;;;;;;;;;;;;;7.69;84.75;100415.84;5094334;28;20342;-70
2022/11/03 01:06:56;;;;;;;;;;;;;;;7.64;84.42;100427.59;5095256;28;19924;-70
2022/11/03 01:09:26;;;;;;;;;;;;;;;7.50;85.17;100418.78;5095166;28;19984;-71
2022/11/03 01:11:59;;;;;;;;;;;;;;;7.45;85.02;100425.44;5094019;28;20397;-71
2022/11/03 01:14:29;;;;;;;;;;;;;;;7.49;84.53;100422.13;5095321;28;20378;-70
2022/11/03 01:16:57;;;;;;;;;;;;;;;7.46;84.61;100418.69;5095036;28;20396;-71
2022/11/03 01:19:27;;;;;;;;;;;;;;;7.47;84.44;100416.16;5094823;28;19927;-72
2022/11/03 01:21:56;;;;;;;;;;;;;;;7.47;84.68;100422.94;5095312;28;20020;-71
2022/11/03 01:24:24;;;;;;;;;;;;;;;7.49;84.97;100422.13;5094776;28;19924;-70
2022/11/03 01:26:53;;;;;;;;;;;;;;;7.38;84.67;100423.59;5095179;28;19924;-70
2022/11/03 01:29:21;;;;;;;;;;;;;;;7.36;84.57;100422.69;5094801;28;19924;-70
2022/11/03 01:31:49;;;;;;;;;;;;;;;7.29;84.92;100418.28;5094745;28;20031;-71
2022/11/03 01:34:19;;;;;;;;;;;;;;;7.31;84.46;100419.19;5094915;28;19969;-71
2022/11/03 01:36:48;;;;;;;;;;;;;;;7.32;84.34;100418.34;5094674;28;19924;-70
2022/11/03 01:39:18;;;;;;;;;;;;;;;7.28;84.25;100417.44;5094961;28;19974;-70
2022/11/03 01:41:47;;;;;;;;;;;;;;;7.23;84.01;100420.66;5094642;28;20324;-71
2022/11/03 01:44:26;;;;;;;;;;;;;;;7.24;84.00;100420.72;5094455;28;19927;-70
2022/11/03 01:46:58;;;;;;;;;;;;;;;7.24;84.76;100414.78;5094527;28;19924;-71
2022/11/03 01:49:29;;;;;;;;;;;;;;;7.29;84.23;100418.28;5094852;28;19927;-70
2022/11/03 01:52:02;;;;;;;;;;;;;;;7.36;84.64;100415.06;5094468;28;19924;-71
2022/11/03 01:54:30;;;;;;;;;;;;;;;7.44;84.91;100418.63;5094785;28;19924;-70
2022/11/03 01:57:00;;;;;;;;;;;;;;;7.48;84.85;100412.81;5094294;28;20328;-71
2022/11/03 01:59:28;;;;;;;;;;;;;;;7.51;85.28;100415.41;5094680;28;19928;-71
2022/11/03 02:01:56;;;;;;;;;;;;;;;7.53;85.74;100402.75;5094272;28;19931;-71
2022/11/03 02:04:27;;;;;;;;;;;;;;;7.55;85.35;100401.97;5094184;28;19924;-70
2022/11/03 02:07:00;;;;;;;;;;;;;;;7.52;85.64;100396.81;5094592;28;19924;-70
2022/11/03 02:09:31;;;;;;;;;;;;;;;7.54;86.19;100400.25;5094267;28;19967;-72
2022/11/03 02:12:06;;;;;;;;;;;;;;;7.52;86.32;100406.97;5094191;28;19924;-70
2022/11/03 02:14:36;;;;;;;;;;;;;;;7.52;86.29;100401.91;5094566;28;19924;-71
2022/11/03 02:17:07;;;;;;;;;;;;;;;7.54;86.91;100395.16;5094404;28;20019;-70
2022/11/03 02:19:38;;;;;;;;;;;;;;;7.52;86.65;100396.81;5094118;28;20369;-71
2022/11/03 02:22:16;;;;;;;;;;;;;;;7.50;87.23;100403.56;5094095;28;19930;-70
2022/11/03 02:24:49;;;;;;;;;;;;;;;7.58;87.55;100402.06;5094009;28;19950;-70
2022/11/03 02:27:23;;;;;;;;;;;;;;;7.59;87.56;100402.88;5094035;28;19924;-71
2022/11/03 02:29:51;;;;;;;;;;;;;;;7.62;88.20;100401.28;5094319;28;19946;-71
2022/11/03 02:32:22;;;;;;;;;;;;;;;7.59;86.97;100403.75;5094294;28;19924;-70
2022/11/03 02:34:55;;;;;;;;;;;;;;;7.55;87.71;100401.97;5093952;28;19924;-71
2022/11/03 02:37:26;;;;;;;;;;;;;;;7.51;87.88;100384.94;5093992;28;20374;-71
2022/11/03 02:39:58;;;;;;;;;;;;;;;7.51;88.03;100384.94;5093958;28;19924;-71
2022/11/03 02:42:28;;;;;;;;;;;;;;;7.49;87.64;100378.97;5093917;28;19928;-71
2022/11/03 02:44:59;;;;;;;;;;;;;;;7.43;88.03;100373.75;5092592;28;19932;-71
2022/11/03 02:47:28;;;;;;;;;;;;;;;7.39;88.14;100380.44;5093792;28;20007;-71
2022/11/03 02:49:56;;;;;;;;;;;;;;;7.37;88.10;100379.56;5092961;28;19953;-71
2022/11/03 02:52:36;;;;;;;;;;;;;;;7.34;87.98;100371.03;5093797;28;19931;-72
2022/11/03 02:55:07;;;;;;;;;;;;;;;7.32;88.63;100370.09;5092877;28;19925;-71
2022/11/03 02:57:39;;;;;;;;;;;;;;;7.26;88.37;100378.44;5093693;28;20385;-71
2022/11/03 03:00:09;;;;;;;;;;;;;;;7.20;88.48;100377.44;5093727;28;20431;-71
2022/11/03 03:02:40;;;;;;;;;;;;;;;7.10;88.11;100375.50;5093959;28;20282;-72
2022/11/03 03:05:11;;;;;;;;;;;;;;;7.04;88.20;100372.81;5093928;28;19924;-72
2022/11/03 03:07:43;;;;;;;;;;;;;;;7.06;88.48;100373.69;5093626;28;19924;-71
2022/11/03 03:10:14;;;;;;;;;;;;;;;7.05;88.20;100377.06;5093974;28;19955;-72
2022/11/03 03:12:47;;;;;;;;;;;;;;;7.04;87.83;100380.44;5093644;28;19970;-72
2022/11/03 03:15:17;;;;;;;;;;;;;;;6.96;87.89;100375.16;5093607;28;19928;-72
2022/11/03 03:17:50;;;;;;;;;;;;;;;6.91;87.67;100373.34;5093804;28;19924;-71
2022/11/03 03:20:21;;;;;;;;;;;;;;;6.86;88.16;100374.91;5093517;28;19970;-72
2022/11/03 03:22:53;;;;;;;;;;;;;;;6.77;87.99;100372.16;5093477;28;19974;-72
2022/11/03 03:25:23;;;;;;;;;;;;;;;6.70;88.18;100371.97;5093480;28;19950;-72
2022/11/03 03:27:55;;;;;;;;;;;;;;;6.63;88.03;100364.16;5096760;28;19924;-72
2022/11/03 03:30:24;;;;;;;;;;;;;;;6.65;88.28;100358.31;5097076;28;19950;-71
2022/11/03 03:32:52;;;;;;;;;;;;;;;6.72;88.23;100357.66;5097117;28;19931;-72
2022/11/03 03:35:22;;;;;;;;;;;;;;;6.75;87.70;100354.31;5097013;28;19954;-71
2022/11/03 03:37:53;;;;;;;;;;;;;;;6.80;87.56;100364.59;5097022;28;20409;-71
2022/11/03 03:40:22;;;;;;;;;;;;;;;6.81;88.42;100361.25;5096931;28;19931;-71
2022/11/03 03:42:52;;;;;;;;;;;;;;;6.79;87.42;100357.81;5096649;28;20271;-71
2022/11/03 03:45:22;;;;;;;;;;;;;;;6.80;87.68;100359.50;5096694;28;19924;-72
2022/11/03 03:47:51;;;;;;;;;;;;;;;6.80;86.94;100359.50;5096868;28;19950;-72
2022/11/03 03:50:25;;;;;;;;;;;;;;;6.83;87.01;100350.31;5097056;28;20313;-70
2022/11/03 03:52:55;;;;;;;;;;;;;;;6.84;86.80;100352.00;5097028;28;19924;-71
2022/11/03 03:55:26;;;;;;;;;;;;;;;6.83;86.94;100357.06;5096627;28;19928;-72
2022/11/03 03:57:55;;;;;;;;;;;;;;;6.85;86.67;100357.94;5096971;28;20408;-72
2022/11/03 04:00:29;;;;;;;;;;;;;;;6.77;87.14;100359.47;5097161;28;20447;-72
2022/11/03 04:02:57;;;;;;;;;;;;;;;6.69;87.28;100356.72;5096460;28;19928;-72
2022/11/03 04:05:26;;;;;;;;;;;;;;;6.79;87.54;100357.81;5096629;28;19931;-72
2022/11/03 04:07:54;;;;;;;;;;;;;;;6.80;87.54;100355.31;5097037;28;20290;-71
2022/11/03 04:10:23;;;;;;;;;;;;;;;6.81;87.89;100361.25;5096259;28;19932;-72
2022/11/03 04:23:25;;;;;;;;;;;;;;;6.87;88.44;100347.03;5096166;28;20014;-72
2022/11/03 04:25:54;;;;;;;;;;;;;;;6.86;88.12;100347.00;5096278;28;19947;-72
2022/11/03 04:28:24;;;;;;;;;;;;;;;6.91;88.30;100338.66;5095939;28;19967;-72
2022/11/03 04:30:56;;;;;;;;;;;;;;;6.90;89.30;100336.09;5095923;28;19931;-72
2022/11/03 04:33:26;;;;;;;;;;;;;;;6.92;89.19;100336.97;5095876;28;19970;-71
2022/11/03 04:35:55;;;;;;;;;;;;;;;6.93;89.42;100338.72;5095669;28;19932;-72
2022/11/03 04:38:26;;;;;;;;;;;;;;;6.96;89.11;100331.19;5095700;28;19974;-71
2022/11/03 04:40:55;;;;;;;;;;;;;;;7.00;89.07;100327.88;5095702;28;20404;-72
2022/11/03 04:43:29;;;;;;;;;;;;;;;6.98;89.54;100334.63;5095700;28;19924;-71
2022/11/03 04:46:02;;;;;;;;;;;;;;;6.99;89.15;100331.25;5095939;28;20388;-71
2022/11/03 04:48:33;;;;;;;;;;;;;;;6.98;89.02;100329.53;5095673;28;19924;-71
2022/11/03 04:51:06;;;;;;;;;;;;;;;6.97;89.63;100327.81;5095512;28;19924;-71
2022/11/03 04:53:35;;;;;;;;;;;;;;;6.99;89.80;100331.25;5095551;28;19924;-72
2022/11/03 04:56:14;;;;;;;;;;;;;;;7.00;89.15;100330.44;5095693;28;19947;-72
2022/11/03 04:58:42;;;;;;;;;;;;;;;7.01;89.57;100327.91;5095692;28;19928;-71
2022/11/03 05:01:13;;;;;;;;;;;;;;;6.96;89.39;100323.56;5095379;28;19928;-72
2022/11/03 05:03:49;;;;;;;;;;;;;;;6.91;89.26;100322.59;5095356;28;19924;-73
2022/11/03 05:06:19;;;;;;;;;;;;;;;6.90;89.54;100325.94;5095436;28;19924;-71
2022/11/03 05:08:53;;;;;;;;;;;;;;;6.89;89.07;100320.00;5095578;28;20397;-71
2022/11/03 05:11:31;;;;;;;;;;;;;;;6.84;89.08;100320.75;5095200;28;20439;-70
2022/11/03 05:14:00;;;;;;;;;;;;;;;6.79;88.75;100323.13;5095096;28;20436;-71
2022/11/03 05:16:31;;;;;;;;;;;;;;;6.77;89.29;100323.94;5095091;28;19934;-71
2022/11/03 05:18:59;;;;;;;;;;;;;;;6.73;88.78;100320.47;5095593;28;19928;-70
2022/11/03 05:21:28;;;;;;;;;;;;;;;6.73;88.90;100317.94;5094771;28;19974;-72
2022/11/03 05:23:58;;;;;;;;;;;;;;;6.74;88.27;100315.41;5094874;28;19924;-72
2022/11/03 05:26:29;;;;;;;;;;;;;;;6.74;87.96;100315.41;5094984;28;19924;-70
2022/11/03 05:29:00;;;;;;;;;;;;;;;6.75;88.74;100312.06;5094855;28;19924;-71
2022/11/03 05:31:31;;;;;;;;;;;;;;;6.79;88.12;100309.63;5093959;28;19928;-71
2022/11/03 05:34:01;;;;;;;;;;;;;;;6.79;87.98;100327.38;5095051;28;19928;-72
2022/11/03 05:36:31;;;;;;;;;;;;;;;6.76;87.98;100320.56;5094759;28;19928;-71
2022/11/03 05:39:01;;;;;;;;;;;;;;;6.71;87.58;100315.38;5094600;28;19928;-72
2022/11/03 05:41:30;;;;;;;;;;;;;;;6.74;88.16;100307.81;5094640;28;19924;-71
2022/11/03 05:43:59;;;;;;;;;;;;;;;6.78;87.70;100311.28;5094513;28;19924;-71
2022/11/03 05:46:31;;;;;;;;;;;;;;;6.80;87.25;100316.38;5094973;28;20320;-72
2022/11/03 05:49:01;;;;;;;;;;;;;;;6.75;86.70;100311.22;5094125;28;19927;-72
2022/11/03 05:51:32;;;;;;;;;;;;;;;6.69;87.18;100322.06;5094736;28;20405;-70
2022/11/03 05:54:02;;;;;;;;;;;;;;;6.62;86.80;100319.34;5094336;28;19973;-71
2022/11/03 05:56:31;;;;;;;;;;;;;;;6.60;86.86;100316.75;5094314;28;19924;-70
2022/11/03 05:59:00;;;;;;;;;;;;;;;6.62;87.17;100320.19;5094283;28;20462;-71
2022/11/03 06:01:31;;;;;;;;;;;;;;;6.68;87.21;100325.44;5094296;28;19925;-70
2022/11/03 06:04:01;;;;;;;;;;;;;;;6.73;86.66;100328.94;5094573;28;19959;-70
2022/11/03 06:06:32;;;;;;;;;;;;;;;6.78;85.98;100325.66;5094447;28;19928;-70
2022/11/03 06:09:02;;;;;;;;;;;;;;;6.81;86.45;100325.72;5093235;28;19931;-70
2022/11/03 06:11:32;;;;;;;;;;;;;;;6.87;86.09;100328.41;5094476;28;19924;-70
2022/11/03 06:14:01;;;;;;;;;;;;;;;6.99;86.30;100331.25;5092891;28;19928;-70
2022/11/03 06:16:37;;;;;;;;;;;;;;;7.03;85.59;100338.13;5094456;28;19928;-71
2022/11/03 06:19:26;;;;;;;;;;;;;;;7.01;86.26;100339.75;5092828;28;20282;-71
2022/11/03 06:21:57;;;;;;;;;;;;;;;7.02;85.46;100336.41;5090922;28;19924;-71
2022/11/03 06:24:33;;;;;;;;;;;;;;;6.99;84.93;100341.38;5094065;28;20397;-72
2022/11/03 06:27:09;;;;;;;;;;;;;;;6.98;85.43;100340.53;5093801;28;19947;-71
2022/11/03 06:29:37;;;;;;;;;;;;;;;7.05;84.90;100342.41;5094242;28;19924;-71
2022/11/03 06:32:10;;;;;;;;;;;;;;;7.13;85.00;100347.66;5075985;28;20000;-71
2022/11/03 06:34:41;;;;;;;;;;;;;;;7.14;85.02;100346.84;5094212;28;19970;-71
2022/11/03 06:37:20;;;;;;;;;;;;;;;7.19;85.17;100350.34;5094502;28;20286;-71
2022/11/03 06:39:49;;;;;;;;;;;;;;;7.33;85.38;100354.06;5093808;28;19936;-71
2022/11/03 06:42:20;;;;;;;;;;;;;;;7.51;85.21;100354.44;5092550;28;20332;-72
2022/11/03 06:44:49;;;;;;;;;;;;;;;7.59;85.29;100363.13;5093829;28;20382;-71
2022/11/03 06:47:23;;;;;;;;;;;;;;;7.63;84.37;100364.88;5093785;28;19924;-73
2022/11/03 06:49:52;;;;;;;;;;;;;;;7.68;84.53;100358.22;5093958;28;19951;-72
2022/11/03 06:52:30;;;;;;;;;;;;;;;7.69;84.28;100354.88;5093702;28;19934;-72
2022/11/03 06:55:15;;;;;;;;;;;;;;;7.76;84.61;100351.63;5093389;28;20285;-72
2022/11/03 06:57:46;;;;;;;;;;;;;;;7.88;84.10;100351.91;5092608;28;19928;-73
2022/11/03 07:00:19;;;;;;;;;;;;;;;8.01;84.80;100343.69;5093827;28;19931;-73
2022/11/03 07:03:07;;;;;;;;;;;;;;;8.18;83.86;100350.81;5096986;28;19928;-72
2022/11/03 07:05:36;;;;;;;;;;;;;;;8.32;84.29;100346.88;5097469;28;19968;-72
2022/11/03 07:08:20;;;;;;;;;;;;;;;8.42;84.13;100351.31;5097395;28;20361;-73
2022/11/03 07:10:50;;;;;;;;;;;;;;;8.54;84.21;100346.44;5097790;28;19969;-72
2022/11/03 07:13:20;;;;;;;;;;;;;;;8.68;84.22;100347.53;5097354;28;19930;-71
2022/11/03 07:15:48;;;;;;;;;;;;;;;8.80;84.25;100352.84;5097975;28;19931;-71
2022/11/03 07:18:21;;;;;;;;;;;;;;;8.95;84.33;100345.44;5097219;28;19935;-71
2022/11/03 07:20:51;;;;;;;;;;;;;;;9.09;83.76;100344.00;5096942;28;19928;-70
2022/11/03 07:23:20;;;;;;;;;;;;;;;9.20;83.47;100347.56;5097093;28;19928;-70
2022/11/03 07:25:52;;;;;;;;;;;;;;;9.25;83.01;100340.84;5097164;28;19930;-70
2022/11/03 07:28:21;;;;;;;;;;;;;;;9.36;83.13;100343.53;5097020;28;19924;-71
2022/11/03 07:30:50;;;;;;;;;;;;;;;9.47;82.54;100346.25;5096940;28;20374;-71
2022/11/03 07:33:21;;;;;;;;;;;;;;;9.56;82.11;100341.28;5097575;28;20015;-70
2022/11/03 07:35:50;;;;;;;;;;;;;;;9.57;81.58;100348.09;5097275;28;19978;-70
2022/11/03 07:38:38;;;;;;;;;;;;;;;9.54;81.64;100338.72;5096801;28;19931;-71
2022/11/03 07:41:09;;;;;;;;;;;;;;;9.48;81.32;100335.25;5096695;28;19925;-75
2022/11/03 07:43:37;;;;;;;;;;;;;;;9.44;80.81;100337.72;5096677;28;19928;-65
2022/11/03 07:46:07;;;;;;;;;;;;;;;9.41;81.03;100332.59;5096730;28;19932;-69
2022/11/03 07:48:39;;;;;;;;;;;;;;;9.45;81.46;100324.13;5087627;28;19924;-70
2022/11/03 07:51:15;;;;;;;;;;;;;;;9.48;81.20;100322.50;5076905;28;19924;-70
2022/11/03 07:53:44;;;;;;;;;;;;;;;9.62;81.66;100315.88;5076299;28;19924;-71
2022/11/03 07:56:18;;;;;;;;;;;;;;;9.76;81.38;100314.38;5076307;28;20366;-69
2022/11/03 07:58:48;;;;;;;;;;;;;;;9.90;80.67;100302.66;5076886;28;20274;-70
2022/11/03 08:01:22;;;;;;;;;;;;;;;10.07;80.78;100303.69;5076207;28;19935;-69
2022/11/03 08:03:55;;;;;;;;;;;;;;;10.36;80.26;100299.81;5076194;28;20016;-70
2022/11/03 08:06:23;;;;;;;;;;;;;;;10.43;80.04;100296.47;5076231;28;19982;-71
2022/11/03 08:08:52;;;;;;;;;;;;;;;10.43;79.52;100301.56;5076037;28;19924;-73
2022/11/03 08:11:22;;;;;;;;;;;;;;;10.31;79.05;100296.34;5076047;28;19924;-70
2022/11/03 08:13:56;;;;;;;;;;;;;;;10.33;79.20;100289.56;5075552;28;19924;-72
2022/11/03 08:16:25;;;;;;;;;;;;;;;10.39;78.94;100284.50;5074651;28;19933;-73
2022/11/03 08:18:55;;;;;;;;;;;;;;;10.51;78.65;100276.97;5076099;28;19930;-70
2022/11/03 08:21:23;;;;;;;;;;;;;;;10.65;78.96;100283.03;5075976;28;20404;-72
2022/11/03 08:23:52;;;;;;;;;;;;;;;10.87;78.78;100273.84;5075853;28;19936;-72
2022/11/03 08:26:20;;;;;;;;;;;;;;;11.07;78.45;100266.34;5075776;28;19929;-71
2022/11/03 08:28:49;;;;;;;;;;;;;;;11.28;77.94;100263.91;5075889;28;20015;-70
2022/11/03 08:31:17;;;;;;;;;;;;;;;11.34;77.33;100266.50;5075648;28;19931;-72
2022/11/03 08:33:45;;;;;;;;;;;;;;;11.44;77.13;100260.59;5075971;28;19947;-71
2022/11/03 08:36:15;;;;;;;;;;;;;;;11.42;76.64;100268.25;5075506;28;19925;-70
2022/11/03 08:38:44;;;;;;;;;;;;;;;11.29;76.25;100266.50;5075569;28;19924;-70
2022/11/03 08:41:12;;;;;;;;;;;;;;;11.26;76.23;100263.91;5075391;28;20015;-71
2022/11/03 08:43:41;;;;;;;;;;;;;;;11.36;76.27;100250.34;5075432;28;20038;-72
2022/11/03 08:46:09;;;;;;;;;;;;;;;11.57;76.33;100233.38;5075341;28;20401;-70
2022/11/03 08:48:46;;;;;;;;;;;;;;;11.82;76.13;100241.19;5075530;28;19924;-72
2022/11/03 08:51:16;;;;;;;;;;;;;;;11.93;75.77;100238.66;5075287;28;19931;-72
2022/11/03 08:53:45;;;;;;;;;;;;;;;12.08;75.35;100239.56;5075233;28;19971;-72
2022/11/03 08:56:16;;;;;;;;;;;;;;;12.23;74.89;100228.50;5075185;28;19928;-71
2022/11/03 08:58:49;;;;;;;;;;;;;;;12.25;74.35;100228.50;5075490;28;19925;-72
2022/11/03 09:01:18;;;;;;;;;;;;;;;12.32;74.84;100232.75;5075013;28;19925;-70
2022/11/03 09:03:46;;;;;;;;;;;;;;;12.34;74.14;100237.03;5074938;28;19925;-70
2022/11/03 09:06:16;;;;;;;;;;;;;;;12.36;74.13;100239.59;5074782;28;19925;-70
2022/11/03 09:08:45;;;;;;;;;;;;;;;12.37;73.95;100231.06;5075230;28;19994;-70
2022/11/03 09:11:33;;;;;;;;;;;;;;;12.45;73.85;100239.63;5074667;28;19982;-70
2022/11/03 09:14:02;;;;;;;;;;;;;;;12.48;73.67;100240.44;5074836;28;19925;-70
2022/11/03 09:16:30;;;;;;;;;;;;;;;12.45;73.93;100231.94;5074729;28;19925;-71
2022/11/03 09:18:58;;;;;;;;;;;;;;;12.47;73.80;100232.78;5074609;28;19925;-70
2022/11/03 09:21:28;;;;;;;;;;;;;;;12.53;73.91;100233.63;5074245;28;19978;-70
2022/11/03 09:23:58;;;;;;;;;;;;;;;12.61;74.03;100225.97;5074038;28;20289;-71
2022/11/03 09:26:26;;;;;;;;;;;;;;;12.65;73.86;100225.09;5074548;28;19924;-71
2022/11/03 09:28:55;;;;;;;;;;;;;;;12.67;73.30;100216.56;5074376;28;19924;-70
2022/11/03 09:31:27;;;;;;;;;;;;;;;12.69;73.23;100221.69;5074447;28;19935;-70
2022/11/03 09:33:55;;;;;;;;;;;;;;;12.78;73.73;100219.13;5074831;28;19978;-70
2022/11/03 09:36:24;;;;;;;;;;;;;;;12.83;73.04;100214.84;5074362;28;19928;-71
2022/11/03 09:38:54;;;;;;;;;;;;;;;12.80;72.80;100212.28;5074675;28;19973;-70
2022/11/03 09:41:22;;;;;;;;;;;;;;;12.81;72.66;100211.44;5074331;28;19924;-70
2022/11/03 09:44:13;;;;;;;;;;;;;;;12.87;72.74;100211.41;5074980;28;19939;-71
2022/11/03 09:46:41;;;;;;;;;;;;;;;12.93;72.31;100203.72;5074197;28;19924;-71
2022/11/03 09:49:12;;;;;;;;;;;;;;;13.01;72.36;100202.00;5074014;28;20479;-71
2022/11/03 09:51:41;;;;;;;;;;;;;;;13.08;72.21;100190.91;5074482;28;19924;-71
2022/11/03 09:54:13;;;;;;;;;;;;;;;13.19;72.25;100191.75;5074083;28;19948;-71
2022/11/03 09:56:42;;;;;;;;;;;;;;;13.30;72.35;100184.84;5074183;28;19996;-70
2022/11/03 09:59:15;;;;;;;;;;;;;;;13.36;71.70;100184.81;5074083;28;19931;-71
2022/11/03 10:01:47;;;;;;;;;;;;;;;13.50;71.99;100174.53;5074135;28;19974;-71
2022/11/03 10:04:16;;;;;;;;;;;;;;;13.70;71.04;100169.28;5074398;28;19931;-71
2022/11/03 10:06:45;;;;;;;;;;;;;;;13.91;70.49;100156.31;5073899;28;19928;-70
2022/11/03 10:09:19;;;;;;;;;;;;;;;14.20;69.90;100156.97;5073912;28;19928;-70
2022/11/03 10:11:48;;;;;;;;;;;;;;;14.39;68.73;100153.44;5074245;28;20332;-71
2022/11/03 10:14:18;;;;;;;;;;;;;;;14.67;68.25;100147.16;5073882;28;20405;-71
2022/11/03 10:16:50;;;;;;;;;;;;;;;14.91;68.21;100145.19;5073865;28;19971;-71
2022/11/03 10:19:21;;;;;;;;;;;;;;;15.05;67.20;100133.91;5073910;28;19963;-72
2022/11/03 10:21:49;;;;;;;;;;;;;;;15.19;66.41;100131.16;5073818;28;20382;-70
2022/11/03 10:24:19;;;;;;;;;;;;;;;15.21;65.60;100124.28;5074256;28;19924;-72
2022/11/03 10:26:48;;;;;;;;;;;;;;;15.42;65.31;100122.31;5074160;28;19956;-71
2022/11/03 10:29:19;;;;;;;;;;;;;;;15.58;65.10;100122.97;5073945;28;20023;-72
2022/11/03 10:31:50;;;;;;;;;;;;;;;15.66;63.95;100121.16;5074065;28;19925;-70
2022/11/03 10:34:40;;;;;;;;;;;;;;;15.66;63.84;100116.00;5073687;28;19924;-71
2022/11/03 10:37:10;;;;;;;;;;;;;;;15.85;63.77;100112.28;5071991;28;19931;-71
2022/11/03 10:39:40;;;;;;;;;;;;;;;16.18;63.76;100110.03;5078050;28;19924;-70
2022/11/03 10:42:16;;;;;;;;;;;;;;;16.27;63.02;100099.59;5077632;28;19931;-69
2022/11/03 10:44:44;;;;;;;;;;;;;;;16.38;62.75;100107.97;5078233;28;19959;-71
2022/11/03 10:47:23;;;;;;;;;;;;;;;16.34;61.89;100096.03;5077952;28;19924;-69
2022/11/03 10:49:53;;;;;;;;;;;;;;;16.28;62.16;100106.44;5076471;28;19924;-70
2022/11/03 10:52:23;;;;;;;;;;;;;;;16.40;62.13;100090.75;5077882;28;20290;-71
2022/11/03 10:54:53;;;;;;;;;;;;;;;16.46;61.56;100080.34;5077841;28;19932;-71
2022/11/03 10:57:22;;;;;;;;;;;;;;;16.53;61.68;100077.66;5077546;28;19950;-71
2022/11/03 10:59:53;;;;;;;;;;;;;;;16.78;61.69;100078.03;5077724;28;19924;-71
2022/11/03 11:02:22;;;;;;;;;;;;;;;17.12;61.23;100073.91;5077449;28;19930;-71
2022/11/03 11:04:53;;;;;;;;;;;;;;;17.32;60.64;100068.31;5077269;28;19932;-70
2022/11/03 11:07:25;;;;;;;;;;;;;;;17.52;59.92;100062.72;5077604;28;19954;-72
2022/11/03 11:09:55;;;;;;;;;;;;;;;17.70;59.74;100049.41;5077232;28;19968;-72
2022/11/03 11:12:23;;;;;;;;;;;;;;;17.57;59.70;100046.25;5077174;28;19924;-70
2022/11/03 11:14:53;;;;;;;;;;;;;;;17.60;58.98;100040.19;5077130;28;19925;-71
2022/11/03 11:17:32;;;;;;;;;;;;;;;17.72;58.42;100034.72;5077076;28;19955;-70
2022/11/03 11:20:12;;;;;;;;;;;;;;;17.73;58.04;100024.34;5077080;28;20003;-73
2022/11/03 11:22:40;;;;;;;;;;;;;;;17.78;57.58;100016.53;5077060;28;20436;-69
2022/11/03 11:25:10;;;;;;;;;;;;;;;17.84;56.86;100008.59;5076892;28;19924;-71
2022/11/03 11:27:49;;;;;;;;;;;;;;;17.80;56.89;100012.16;5077213;28;19924;-71
2022/11/03 11:30:36;;;;;;;;;;;;;;;17.73;56.57;100005.47;5075915;28;20588;-72
2022/11/03 11:33:13;;;;;;;;;;;;;;;17.73;56.61;100005.47;5076858;28;19970;-72
2022/11/03 11:35:52;;;;;;;;;;;;;;;17.74;56.60;99996.81;5077175;28;19924;-69
2022/11/03 11:38:36;;;;;;;;;;;;;;;17.72;56.71;100003.75;5077051;28;19951;-71
2022/11/03 11:41:06;;;;;;;;;;;;;;;17.74;56.75;99986.47;5076733;28;19963;-70
2022/11/03 11:43:35;;;;;;;;;;;;;;;17.85;56.04;99982.72;5077190;28;19925;-69
2022/11/03 11:46:14;;;;;;;;;;;;;;;17.88;56.15;99977.50;5076555;28;19924;-67
2022/11/03 11:48:42;;;;;;;;;;;;;;;17.91;55.39;99969.69;5075842;28;19948;-71
2022/11/03 11:51:11;;;;;;;;;;;;;;;18.00;55.43;99968.59;5076308;28;19931;-72
2022/11/03 11:53:41;;;;;;;;;;;;;;;18.19;55.80;99966.38;5077094;28;20269;-71
2022/11/03 11:56:12;;;;;;;;;;;;;;;18.31;55.41;99959.13;5076311;28;19925;-71
2022/11/03 11:58:42;;;;;;;;;;;;;;;18.11;55.71;99961.41;5076411;28;19931;-71
2022/11/03 12:01:21;;;;;;;;;;;;;;;17.93;55.31;99962.72;5075372;28;20263;-70
2022/11/03 12:03:51;;;;;;;;;;;;;;;17.60;54.65;99942.94;5076177;28;20400;-70
2022/11/03 12:06:32;;;;;;;;;;;;;;;17.44;54.64;99947.59;5076257;28;19924;-71
2022/11/03 12:09:16;;;;;;;;;;;;;;;17.31;54.68;99946.19;5076181;28;19924;-70
2022/11/03 12:11:47;;;;;;;;;;;;;;;17.12;54.42;99939.78;5076167;28;20401;-70
2022/11/03 12:14:25;;;;;;;;;;;;;;;16.88;54.31;99937.75;5076379;28;19956;-70
2022/11/03 12:16:54;;;;;;;;;;;;;;;16.85;54.57;99929.22;5076631;28;20315;-70
2022/11/03 12:19:33;;;;;;;;;;;;;;;16.88;54.92;99930.00;5076002;28;19924;-70
2022/11/03 12:22:02;;;;;;;;;;;;;;;16.85;55.37;99929.22;5075493;28;19925;-70
2022/11/03 12:24:41;;;;;;;;;;;;;;;16.75;55.83;99921.69;5075856;28;19932;-71
2022/11/03 12:27:21;;;;;;;;;;;;;;;16.84;55.92;99912.94;5074809;28;19924;-70
2022/11/03 12:29:50;;;;;;;;;;;;;;;16.91;56.06;99908.47;5075696;28;19924;-69
2022/11/03 12:32:19;;;;;;;;;;;;;;;16.95;55.46;99910.94;5075688;28;19931;-70
2022/11/03 12:35:01;;;;;;;;;;;;;;;17.08;55.10;99911.50;5075936;28;19924;-71
2022/11/03 12:37:30;;;;;;;;;;;;;;;17.11;55.22;99901.97;5075577;28;19925;-69
2022/11/03 12:39:58;;;;;;;;;;;;;;;17.29;55.34;99898.09;5075435;28;19932;-69
2022/11/03 12:42:27;;;;;;;;;;;;;;;17.44;54.80;99895.16;5075509;28;19928;-71
2022/11/03 12:44:56;;;;;;;;;;;;;;;17.32;54.72;99888.53;5075757;28;20059;-70
2022/11/03 12:47:25;;;;;;;;;;;;;;;17.19;54.71;99894.91;5075357;28;19924;-70
2022/11/03 12:49:53;;;;;;;;;;;;;;;17.08;54.76;99890.88;5075292;28;19931;-70
2022/11/03 12:52:21;;;;;;;;;;;;;;;17.15;54.77;99882.97;5075308;28;20337;-69
2022/11/03 12:54:50;;;;;;;;;;;;;;;17.37;55.00;99878.94;5075260;28;19925;-69
2022/11/03 12:57:18;;;;;;;;;;;;;;;17.58;54.37;99874.16;5040619;28;20382;-71
2022/11/03 12:59:46;;;;;;;;;;;;;;;17.65;53.97;99873.13;5074433;28;20379;-70
2022/11/03 13:02:17;;;;;;;;;;;;;;;17.73;54.06;99866.03;5074989;28;19925;-70
2022/11/03 13:04:45;;;;;;;;;;;;;;;17.80;53.88;99867.56;5075071;28;19959;-70
2022/11/03 13:07:13;;;;;;;;;;;;;;;17.65;53.78;99860.22;5074028;28;20375;-71
2022/11/03 13:09:45;;;;;;;;;;;;;;;17.40;53.39;99865.13;5074844;28;19955;-69
2022/11/03 13:14:51;;;;;;;;;;;;;;;17.25;53.86;99866.34;5074960;28;19925;-70
2022/11/03 13:17:21;;;;;;;;;;;;;;;17.08;54.38;99860.78;5074820;28;19925;-71
2022/11/03 13:19:50;;;;;;;;;;;;;;;17.09;55.00;99852.16;5074744;28;19924;-71
2022/11/03 13:22:21;;;;;;;;;;;;;;;16.88;55.56;99847.50;5074651;28;19931;-69
2022/11/03 13:24:50;;;;;;;;;;;;;;;16.80;56.08;99854.56;5074704;28;20397;-71